createdAt,value
2019-02-11T00:01:14.817Z,93087.95
2019-02-11T00:03:45.272Z,93086.38
2019-02-11T00:06:15.096Z,93088.34
2019-02-11T00:08:43.771Z,93096.34
2019-02-11T00:11:12.583Z,93083.23
2019-02-11T00:13:41.357Z,93070.00
2019-02-11T00:16:10.034Z,93061.94
2019-02-11T00:18:38.722Z,93047.84
2019-02-11T00:21:07.414Z,93038.47
2019-02-11T00:23:36.093Z,93042.22
2019-02-11T00:26:04.887Z,93040.05
2019-02-11T00:28:33.568Z,93043.00
2019-02-11T00:31:02.258Z,93049.99
2019-02-11T00:33:31.104Z,93046.74
2019-02-11T00:36:00.051Z,93046.25
2019-02-11T00:38:28.733Z,93045.38
2019-02-11T00:40:57.412Z,93054.20
2019-02-11T00:43:26.197Z,93057.23
2019-02-11T00:45:54.906Z,93062.39
2019-02-11T00:48:23.677Z,93046.27
2019-02-11T00:50:52.293Z,93038.45
2019-02-11T00:53:21.049Z,93044.95
2019-02-11T00:55:49.738Z,93039.65
2019-02-11T00:58:18.523Z,93038.15
2019-02-11T01:00:47.525Z,93045.42
2019-02-11T01:03:16.211Z,93045.38
2019-02-11T01:05:44.895Z,93038.91
2019-02-11T01:08:13.506Z,93031.84
2019-02-11T01:10:42.305Z,93031.36
2019-02-11T01:13:10.948Z,93028.88
2019-02-11T01:15:39.641Z,93030.97
2019-02-11T01:18:08.339Z,93031.14
2019-02-11T01:20:37.027Z,93031.55
2019-02-11T01:23:05.714Z,93034.43
2019-02-11T01:25:34.481Z,93037.66
2019-02-11T01:28:03.174Z,93038.64
2019-02-11T01:30:31.961Z,93044.86
2019-02-11T01:33:00.575Z,93045.94
2019-02-11T01:35:29.336Z,93036.09
2019-02-11T01:37:57.967Z,93040.74
2019-02-11T01:40:26.711Z,93031.88
2019-02-11T01:42:55.392Z,93021.72
2019-02-11T01:45:24.067Z,93020.91
2019-02-11T01:47:52.774Z,93009.20
2019-02-11T01:50:21.457Z,93004.85
2019-02-11T01:52:50.240Z,93006.64
2019-02-11T01:55:18.923Z,93004.77
2019-02-11T01:57:48.228Z,93005.56
2019-02-11T02:00:16.916Z,93013.22
2019-02-11T02:02:45.703Z,93003.27
2019-02-11T02:05:14.495Z,93010.19
2019-02-11T02:07:43.279Z,93009.27
2019-02-11T02:10:14.550Z,92997.27
2019-02-11T02:12:43.236Z,93006.71
2019-02-11T02:15:14.149Z,92999.02
2019-02-11T02:17:42.835Z,92987.31
2019-02-11T02:20:14.287Z,92995.87
2019-02-11T02:22:43.013Z,93015.21
2019-02-11T02:25:12.383Z,93021.32
2019-02-11T02:27:41.679Z,93003.68
2019-02-11T02:30:14.871Z,93006.33
2019-02-11T02:32:45.094Z,93009.98
2019-02-11T02:35:13.887Z,93007.23
2019-02-11T02:37:42.574Z,93026.73
2019-02-11T02:40:11.566Z,93035.70
2019-02-11T02:42:40.256Z,93022.88
2019-02-11T02:45:10.184Z,93030.56
2019-02-11T02:47:40.446Z,93037.55
2019-02-11T02:50:10.210Z,93040.80
2019-02-11T02:52:38.987Z,93045.62
2019-02-11T02:55:08.863Z,93051.53
2019-02-11T02:57:37.480Z,93046.73
2019-02-11T03:00:11.536Z,93044.94
2019-02-11T03:02:40.235Z,93048.59
2019-02-11T03:05:10.106Z,93049.08
2019-02-11T03:07:38.909Z,93046.02
2019-02-11T03:10:09.856Z,93034.71
2019-02-11T03:12:38.472Z,93049.19
2019-02-11T03:15:09.951Z,93058.92
2019-02-11T03:17:38.653Z,93056.14
2019-02-11T03:20:09.228Z,93055.38
2019-02-11T03:22:37.878Z,93051.54
2019-02-11T03:25:08.402Z,93051.89
2019-02-11T03:27:37.084Z,93055.95
2019-02-11T03:30:09.046Z,93057.83
2019-02-11T03:32:37.690Z,93047.17
2019-02-11T03:35:06.729Z,93061.27
2019-02-11T03:37:36.148Z,93070.06
2019-02-11T03:40:07.937Z,93067.26
2019-02-11T03:42:36.674Z,93070.80
2019-02-11T03:45:08.332Z,93063.23
2019-02-11T03:47:37.122Z,93059.80
2019-02-11T03:50:08.387Z,93060.17
2019-02-11T03:52:37.000Z,93064.62
2019-02-11T03:55:07.164Z,93076.82
2019-02-11T03:57:35.873Z,93081.45
2019-02-11T04:00:05.986Z,93071.62
2019-02-11T04:02:34.691Z,93067.07
2019-02-11T04:05:05.007Z,93059.17
2019-02-11T04:07:33.621Z,93059.47
2019-02-11T04:10:02.373Z,93054.65
2019-02-11T04:12:31.052Z,93047.39
2019-02-11T04:14:59.848Z,93053.50
2019-02-11T04:17:28.630Z,93053.20
2019-02-11T04:19:57.314Z,93043.34
2019-02-11T04:22:26.003Z,93046.20
2019-02-11T04:24:54.691Z,93049.14
2019-02-11T04:27:23.384Z,93042.66
2019-02-11T04:29:52.162Z,93046.07
2019-02-11T04:32:20.762Z,93044.68
2019-02-11T04:34:49.431Z,93038.17
2019-02-11T04:37:18.119Z,93046.27
2019-02-11T04:39:46.814Z,93055.03
2019-02-11T04:42:15.554Z,93058.37
2019-02-11T04:44:44.161Z,93065.98
2019-02-11T04:47:12.865Z,93077.53
2019-02-11T04:49:41.558Z,93074.31
2019-02-11T04:52:10.457Z,93071.13
2019-02-11T04:54:39.070Z,93078.66
2019-02-11T04:57:07.818Z,93091.55
2019-02-11T04:59:36.506Z,93088.16
2019-02-11T05:02:05.294Z,93095.75
2019-02-11T05:04:33.987Z,93095.42
2019-02-11T05:07:03.494Z,93099.08
2019-02-11T05:09:32.168Z,93096.84
2019-02-11T05:12:00.857Z,93107.28
2019-02-11T05:14:29.543Z,93120.22
2019-02-11T05:16:58.208Z,93112.22
2019-02-11T05:19:26.916Z,93103.82
2019-02-11T05:21:55.610Z,93086.70
2019-02-11T05:24:24.389Z,93100.58
2019-02-11T05:26:53.098Z,93092.41
2019-02-11T05:29:21.787Z,93091.84
2019-02-11T05:31:50.449Z,93093.30
2019-02-11T05:34:19.145Z,93098.13
2019-02-11T05:36:47.923Z,93109.13
2019-02-11T05:39:17.951Z,93125.20
2019-02-11T05:41:46.741Z,93126.30
2019-02-11T05:44:15.421Z,93115.16
2019-02-11T05:46:44.089Z,93123.52
2019-02-11T05:49:12.796Z,93119.90
2019-02-11T05:51:41.513Z,93128.53
2019-02-11T05:54:10.165Z,93129.80
2019-02-11T05:56:38.966Z,93139.36
2019-02-11T05:59:07.641Z,93133.08
2019-02-11T06:01:36.326Z,93133.94
2019-02-11T06:04:05.115Z,93134.17
2019-02-11T06:06:33.799Z,93129.95
2019-02-11T06:09:02.495Z,93107.36
2019-02-11T06:11:31.277Z,93118.62
2019-02-11T06:14:00.066Z,93112.78
2019-02-11T06:16:28.760Z,93116.33
2019-02-11T06:18:57.549Z,93127.50
2019-02-11T06:21:26.245Z,93121.13
2019-02-11T06:23:55.015Z,93118.56
2019-02-11T06:26:23.808Z,93122.23
2019-02-11T06:28:52.488Z,93129.54
2019-02-11T06:31:22.714Z,93133.27
2019-02-11T06:33:51.518Z,93140.09
2019-02-11T06:36:20.291Z,93136.92
2019-02-11T06:38:49.088Z,93148.52
2019-02-11T06:41:17.758Z,93154.55
2019-02-11T06:43:46.457Z,93178.31
2019-02-11T06:46:15.135Z,93168.38
2019-02-11T06:48:43.847Z,93177.19
2019-02-11T06:51:12.521Z,93179.67
2019-02-11T06:53:41.308Z,93189.05
2019-02-11T06:56:09.994Z,93185.20
2019-02-11T06:58:38.672Z,93189.31
2019-02-11T07:01:07.360Z,93196.66
2019-02-11T07:03:36.049Z,93199.22
2019-02-11T07:06:04.740Z,93213.55
2019-02-11T07:08:33.528Z,93213.31
2019-02-11T07:11:03.717Z,93214.94
2019-02-11T07:13:32.435Z,93226.16
2019-02-11T07:16:02.570Z,93209.39
2019-02-11T07:18:31.752Z,93228.98
2019-02-11T07:21:02.017Z,93228.61
2019-02-11T07:23:30.660Z,93220.06
2019-02-11T07:25:59.450Z,93233.97
2019-02-11T07:28:28.160Z,93244.58
2019-02-11T07:30:56.856Z,93239.30
2019-02-11T07:33:25.626Z,93247.03
2019-02-11T07:35:54.296Z,93251.09
2019-02-11T07:38:23.082Z,93259.95
2019-02-11T07:40:51.871Z,93257.59
2019-02-11T07:43:22.096Z,93265.69
2019-02-11T07:45:55.406Z,93274.53
2019-02-11T07:48:24.286Z,93266.66
2019-02-11T07:50:53.056Z,93266.74
2019-02-11T07:53:21.749Z,93273.38
2019-02-11T07:55:50.447Z,93270.89
2019-02-11T07:58:19.063Z,93287.71
2019-02-11T08:00:47.709Z,93294.42
2019-02-11T08:03:16.528Z,93295.23
2019-02-11T08:05:45.184Z,93294.48
2019-02-11T08:08:13.996Z,93297.11
2019-02-11T08:10:42.764Z,93296.30
2019-02-11T08:13:11.558Z,93303.82
2019-02-11T08:15:40.341Z,93297.59
2019-02-11T08:18:09.029Z,93299.07
2019-02-11T08:20:37.814Z,93298.44
2019-02-11T08:23:12.942Z,93304.23
2019-02-11T08:25:37.081Z,93303.99
2019-02-11T08:28:05.719Z,93295.81
2019-02-11T08:30:34.631Z,93295.63
2019-02-11T08:33:03.310Z,93296.97
2019-02-11T08:35:31.991Z,93311.06
2019-02-11T08:38:00.772Z,93304.77
2019-02-11T08:40:29.459Z,93310.28
2019-02-11T08:42:59.410Z,93313.39
2019-02-11T08:45:28.037Z,93316.14
2019-02-11T08:47:56.768Z,93326.09
2019-02-11T08:50:25.435Z,93317.29
2019-02-11T08:52:54.324Z,93329.25
2019-02-11T08:55:23.135Z,93328.20
2019-02-11T08:57:51.813Z,93339.97
2019-02-11T09:00:20.609Z,93333.33
2019-02-11T09:02:49.278Z,93346.25
2019-02-11T09:05:18.065Z,93344.91
2019-02-11T09:07:46.961Z,93352.90
2019-02-11T09:10:15.941Z,93357.66
2019-02-11T09:12:44.642Z,93360.70
2019-02-11T09:15:13.732Z,93367.64
2019-02-11T09:17:42.414Z,93377.92
2019-02-11T09:20:11.734Z,93383.09
2019-02-11T09:22:40.507Z,93389.88
2019-02-11T09:25:10.952Z,93403.84
2019-02-11T09:27:39.723Z,93406.70
2019-02-11T09:30:11.443Z,93411.52
2019-02-11T09:32:40.180Z,93413.63
2019-02-11T09:35:09.161Z,93413.39
2019-02-11T09:37:37.950Z,93419.96
2019-02-11T09:40:09.712Z,93414.44
2019-02-11T09:42:38.401Z,93429.34
2019-02-11T09:45:10.162Z,93425.59
2019-02-11T09:47:40.545Z,93433.44
2019-02-11T09:50:17.764Z,93444.78
2019-02-11T09:52:46.453Z,93446.27
2019-02-11T09:55:21.288Z,93447.54
2019-02-11T09:57:49.971Z,93454.53
2019-02-11T10:00:18.869Z,93453.56
2019-02-11T10:02:47.555Z,93460.50
2019-02-11T10:05:16.199Z,93468.13
2019-02-11T10:07:44.928Z,93485.02
2019-02-11T10:10:15.142Z,93492.45
2019-02-11T10:12:43.929Z,93498.31
2019-02-11T10:15:13.747Z,93514.52
2019-02-11T10:17:42.633Z,93511.55
2019-02-11T10:20:12.948Z,93515.49
2019-02-11T10:22:41.655Z,93518.80
2019-02-11T10:25:13.404Z,93527.50
2019-02-11T10:27:42.089Z,93533.71
2019-02-11T10:30:12.952Z,93536.27
2019-02-11T10:32:41.634Z,93533.13
2019-02-11T10:35:12.051Z,93543.21
2019-02-11T10:37:40.744Z,93550.63
2019-02-11T10:40:11.865Z,93548.59
2019-02-11T10:42:40.562Z,93564.66
2019-02-11T10:45:11.843Z,93565.67
2019-02-11T10:47:41.816Z,93570.19
2019-02-11T10:50:12.774Z,93581.30
2019-02-11T10:52:41.453Z,93580.91
2019-02-11T10:55:15.102Z,93581.92
2019-02-11T10:57:43.935Z,93589.22
2019-02-11T11:00:15.698Z,93598.38
2019-02-11T11:02:46.187Z,93599.63
2019-02-11T11:05:15.395Z,93600.78
2019-02-11T11:07:47.390Z,93600.86
2019-02-11T11:10:36.964Z,93607.01
2019-02-11T11:13:05.749Z,93608.72
2019-02-11T11:15:34.447Z,93607.45
2019-02-11T11:18:03.125Z,93609.83
2019-02-11T11:20:31.811Z,93610.94
2019-02-11T11:23:00.599Z,93613.16
2019-02-11T11:25:29.394Z,93626.44
2019-02-11T11:27:58.386Z,93626.48
2019-02-11T11:30:27.175Z,93627.02
2019-02-11T11:32:55.966Z,93629.95
2019-02-11T11:35:24.851Z,93635.44
2019-02-11T11:37:53.643Z,93636.92
2019-02-11T11:40:23.379Z,93642.35
2019-02-11T11:42:52.161Z,93658.33
2019-02-11T11:45:22.355Z,93654.88
2019-02-11T11:47:51.054Z,93656.34
2019-02-11T11:50:19.673Z,93661.45
2019-02-11T11:52:48.424Z,93668.20
2019-02-11T11:55:19.401Z,93668.00
2019-02-11T11:57:48.075Z,93673.56
2019-02-11T12:00:30.984Z,93676.67
2019-02-11T12:03:03.674Z,93671.94
2019-02-11T12:05:30.298Z,93679.86
2019-02-11T12:07:59.066Z,93680.80
2019-02-11T12:10:28.811Z,93691.06
2019-02-11T12:12:59.134Z,93695.88
2019-02-11T12:15:28.115Z,93693.97
2019-02-11T12:17:58.469Z,93694.11
2019-02-11T12:20:27.119Z,93693.80
2019-02-11T12:22:55.909Z,93706.25
2019-02-11T12:25:24.593Z,93706.42
2019-02-11T12:27:53.379Z,93713.63
2019-02-11T12:30:24.944Z,93723.62
2019-02-11T12:32:55.392Z,93716.48
2019-02-11T12:35:25.128Z,93725.96
2019-02-11T12:37:54.078Z,93733.70
2019-02-11T12:40:22.733Z,93727.87
2019-02-11T12:42:53.901Z,93737.55
2019-02-11T12:45:26.081Z,93734.38
2019-02-11T12:47:54.917Z,93734.03
2019-02-11T12:50:23.671Z,93739.27
2019-02-11T12:52:52.406Z,93738.49
2019-02-11T12:55:21.238Z,93744.38
2019-02-11T12:57:50.528Z,93748.02
2019-02-11T13:00:21.912Z,93739.05
2019-02-11T13:02:50.791Z,93746.73
2019-02-11T13:05:22.651Z,93743.10
2019-02-11T13:07:52.062Z,93747.67
2019-02-11T13:10:20.821Z,93748.47
2019-02-11T13:12:49.613Z,93754.70
2019-02-11T13:15:58.858Z,93763.45
2019-02-11T13:17:50.131Z,93764.39
2019-02-11T13:20:19.677Z,93751.61
2019-02-11T13:22:48.757Z,93762.38
2019-02-11T13:25:18.470Z,93762.48
2019-02-11T13:27:47.389Z,93763.72
2019-02-11T13:30:21.269Z,93761.44
2019-02-11T13:32:49.986Z,93762.12
2019-02-11T13:35:18.637Z,93771.17
2019-02-11T13:37:47.341Z,93766.18
2019-02-11T13:40:16.381Z,93771.77
2019-02-11T13:42:45.896Z,93781.78
2019-02-11T13:45:23.873Z,93788.52
2019-02-11T13:47:57.041Z,93786.50
2019-02-11T13:50:29.510Z,93796.42
2019-02-11T13:52:58.626Z,93798.25
2019-02-11T13:55:30.407Z,93798.73
2019-02-11T13:57:58.851Z,93813.20
2019-02-11T14:00:29.890Z,93805.22
2019-02-11T14:03:00.015Z,93801.80
2019-02-11T14:05:29.422Z,93806.44
2019-02-11T14:08:00.133Z,93810.22
2019-02-11T14:10:29.355Z,93822.70
2019-02-11T14:12:58.631Z,93828.34
2019-02-11T14:15:27.539Z,93831.35
2019-02-11T14:18:10.877Z,93827.72
2019-02-11T14:20:28.830Z,93825.59
2019-02-11T14:22:59.154Z,93836.78
2019-02-11T14:25:42.856Z,93850.55
2019-02-11T14:28:01.408Z,93850.98
2019-02-11T14:30:30.188Z,93849.29
2019-02-11T14:32:59.002Z,93862.36
2019-02-11T14:35:27.672Z,93867.66
2019-02-11T14:37:56.472Z,93871.36
2019-02-11T14:40:25.243Z,93867.56
2019-02-11T14:42:54.062Z,93867.94
2019-02-11T14:45:22.832Z,93883.55
2019-02-11T14:47:51.720Z,93885.79
2019-02-11T14:50:21.933Z,93883.59
2019-02-11T14:52:50.637Z,93892.55
2019-02-11T14:55:19.416Z,93892.30
2019-02-11T14:57:48.091Z,93893.52
2019-02-11T15:00:21.486Z,93906.61
2019-02-11T15:02:52.024Z,93912.04
2019-02-11T15:05:20.805Z,93909.20
2019-02-11T15:07:49.699Z,93912.55
2019-02-11T15:10:19.698Z,93926.55
2019-02-11T15:12:48.618Z,93934.45
2019-02-11T15:15:17.294Z,93938.83
2019-02-11T15:17:47.723Z,93951.70
2019-02-11T15:20:17.363Z,93946.30
2019-02-11T15:22:46.333Z,93946.47
2019-02-11T15:25:19.209Z,93951.10
2019-02-11T15:27:48.315Z,93960.77
2019-02-11T15:30:19.544Z,93956.61
2019-02-11T15:32:50.563Z,93974.31
2019-02-11T15:35:19.406Z,93971.98
2019-02-11T15:37:48.285Z,93982.44
2019-02-11T15:40:19.641Z,93994.27
2019-02-11T15:42:48.404Z,93996.42
2019-02-11T15:45:17.201Z,94006.20
2019-02-11T15:47:46.204Z,94019.19
2019-02-11T15:50:16.833Z,94017.06
2019-02-11T15:52:46.939Z,94019.62
2019-02-11T15:55:21.091Z,94022.22
2019-02-11T15:57:51.972Z,94028.73
2019-02-11T16:00:24.202Z,94034.97
2019-02-11T16:02:53.171Z,94045.20
2019-02-11T16:05:21.799Z,94042.69
2019-02-11T16:07:52.896Z,94051.48
2019-02-11T16:10:26.991Z,94054.19
2019-02-11T16:12:56.107Z,94070.49
2019-02-11T16:15:24.886Z,94054.98
2019-02-11T16:17:55.368Z,94067.94
2019-02-11T16:20:26.307Z,94072.73
2019-02-11T16:22:55.362Z,94075.42
2019-02-11T16:25:24.056Z,94071.13
2019-02-11T16:27:52.824Z,94097.31
2019-02-11T16:30:23.215Z,94086.48
2019-02-11T16:32:52.373Z,94088.23
2019-02-11T16:35:21.245Z,94099.23
2019-02-11T16:37:50.224Z,94106.30
2019-02-11T16:40:21.596Z,94115.57
2019-02-11T16:42:50.580Z,94113.48
2019-02-11T16:45:19.484Z,94117.14
2019-02-11T16:47:48.205Z,94132.99
2019-02-11T16:50:18.468Z,94134.75
2019-02-11T16:52:51.484Z,94150.72
2019-02-11T16:55:20.249Z,94144.96
2019-02-11T16:57:48.938Z,94154.87
2019-02-11T17:00:19.052Z,94158.23
2019-02-11T17:02:48.369Z,94176.62
2019-02-11T17:05:16.996Z,94166.06
2019-02-11T17:07:47.384Z,94179.66
2019-02-11T17:10:16.461Z,94174.53
2019-02-11T17:12:45.145Z,94196.45
2019-02-11T17:15:18.843Z,94197.91
2019-02-11T17:17:47.647Z,94211.62
2019-02-11T17:20:16.794Z,94206.05
2019-02-11T17:22:45.520Z,94207.66
2019-02-11T17:25:16.162Z,94212.91
2019-02-11T17:27:44.777Z,94215.64
2019-02-11T17:30:24.175Z,94213.39
2019-02-11T17:33:03.715Z,94222.98
2019-02-11T17:35:32.712Z,94226.80
2019-02-11T17:38:01.706Z,94227.45
2019-02-11T17:40:30.602Z,94228.73
2019-02-11T17:43:00.925Z,94239.91
2019-02-11T17:45:31.417Z,94240.55
2019-02-11T17:48:00.289Z,94249.52
2019-02-11T17:50:29.541Z,94253.97
2019-02-11T17:53:03.851Z,94249.98
2019-02-11T17:55:32.657Z,94267.88
2019-02-11T17:58:01.357Z,94263.39
2019-02-11T18:00:37.184Z,94264.20
2019-02-11T18:03:08.144Z,94273.15
2019-02-11T18:05:37.359Z,94277.63
2019-02-11T18:08:06.620Z,94277.94
2019-02-11T18:10:35.365Z,94278.25
2019-02-11T18:13:04.438Z,94275.38
2019-02-11T18:15:33.619Z,94292.94
2019-02-11T18:18:04.313Z,94281.43
2019-02-11T18:20:33.043Z,94292.59
2019-02-11T18:23:02.095Z,94294.02
2019-02-11T18:25:32.348Z,94293.03
2019-02-11T18:28:02.057Z,94293.84
2019-02-11T18:30:32.238Z,94297.00
2019-02-11T18:33:02.055Z,94295.09
2019-02-11T18:35:32.136Z,94294.65
2019-02-11T18:38:02.597Z,94302.59
2019-02-11T18:40:31.564Z,94292.23
2019-02-11T18:43:00.622Z,94294.33
2019-02-11T18:45:29.318Z,94300.84
2019-02-11T18:47:58.191Z,94297.64
2019-02-11T18:50:26.883Z,94325.44
2019-02-11T18:52:55.717Z,94321.61
2019-02-11T18:55:24.378Z,94316.50
2019-02-11T18:57:53.291Z,94317.13
2019-02-11T19:00:22.193Z,94308.70
2019-02-11T19:02:54.033Z,94318.16
2019-02-11T19:05:24.305Z,94309.21
2019-02-11T19:07:53.340Z,94310.00
2019-02-11T19:10:23.922Z,94318.18
2019-02-11T19:12:52.691Z,94323.92
2019-02-11T19:15:22.158Z,94329.95
2019-02-11T19:17:51.045Z,94328.05
2019-02-11T19:20:20.543Z,94342.58
2019-02-11T19:22:49.769Z,94331.89
2019-02-11T19:25:18.946Z,94338.94
2019-02-11T19:27:48.249Z,94335.58
2019-02-11T19:30:25.230Z,94344.68
2019-02-11T19:32:55.720Z,94339.56
2019-02-11T19:35:24.459Z,94344.34
2019-02-11T19:37:54.051Z,94333.50
2019-02-11T19:40:25.680Z,94337.19
2019-02-11T19:42:54.590Z,94344.53
2019-02-11T19:45:25.932Z,94346.91
2019-02-11T19:47:56.465Z,94339.55
2019-02-11T19:50:25.162Z,94346.29
2019-02-11T19:52:55.589Z,94356.51
2019-02-11T19:55:25.876Z,94362.25
2019-02-11T19:57:55.110Z,94360.02
2019-02-11T20:00:24.098Z,94359.08
2019-02-11T20:02:53.758Z,94371.50
2019-02-11T20:05:24.446Z,94358.42
2019-02-11T20:07:53.239Z,94353.06
2019-02-11T20:10:32.108Z,94372.20
2019-02-11T20:12:57.683Z,94351.44
2019-02-11T20:15:32.298Z,94375.42
2019-02-11T20:18:01.184Z,94369.03
2019-02-11T20:20:29.980Z,94375.37
2019-02-11T20:22:58.801Z,94366.27
2019-02-11T20:25:28.000Z,94370.91
2019-02-11T20:27:59.917Z,94376.16
2019-02-11T20:30:30.139Z,94376.64
2019-02-11T20:32:59.060Z,94394.53
2019-02-11T20:35:27.870Z,94392.77
2019-02-11T20:37:56.631Z,94390.22
2019-02-11T20:40:28.263Z,94397.27
2019-02-11T20:42:56.964Z,94401.09
2019-02-11T20:45:29.524Z,94383.05
2019-02-11T20:47:59.960Z,94392.84
2019-02-11T20:50:33.325Z,94392.20
2019-02-11T20:53:02.145Z,94388.36
2019-02-11T20:55:31.248Z,94386.11
2019-02-11T20:58:02.324Z,94396.95
2019-02-11T21:00:31.066Z,94394.73
2019-02-11T21:03:08.142Z,94403.70
2019-02-11T21:05:31.917Z,94406.73
2019-02-11T21:08:02.477Z,94411.55
2019-02-11T21:10:31.582Z,94402.24
2019-02-11T21:13:01.496Z,94409.61
2019-02-11T21:15:31.189Z,94410.20
2019-02-11T21:18:01.511Z,94406.25
2019-02-11T21:20:36.092Z,94415.82
2019-02-11T21:23:06.973Z,94416.83
2019-02-11T21:25:37.189Z,94414.22
2019-02-11T21:28:05.990Z,94409.88
2019-02-11T21:30:36.815Z,94418.64
2019-02-11T21:33:06.845Z,94428.48
2019-02-11T21:35:35.548Z,94423.99
2019-02-11T21:38:04.316Z,94434.69
2019-02-11T21:40:33.097Z,94444.20
2019-02-11T21:43:01.784Z,94435.23
2019-02-11T21:45:30.568Z,94443.16
2019-02-11T21:47:59.257Z,94443.34
2019-02-11T21:50:27.945Z,94442.42
2019-02-11T21:52:58.263Z,94446.22
2019-02-11T21:55:28.695Z,94433.09
2019-02-11T21:57:57.485Z,94437.25
2019-02-11T22:00:26.170Z,94433.59
2019-02-11T22:02:54.962Z,94450.32
2019-02-11T22:05:25.392Z,94442.69
2019-02-11T22:07:55.726Z,94443.02
2019-02-11T22:10:24.706Z,94432.49
2019-02-11T22:12:54.945Z,94445.45
2019-02-11T22:15:23.720Z,94435.28
2019-02-11T22:17:52.418Z,94434.63
2019-02-11T22:20:22.124Z,94438.17
2019-02-11T22:22:50.900Z,94454.94
2019-02-11T22:25:19.579Z,94443.81
2019-02-11T22:27:48.299Z,94439.95
2019-02-11T22:30:20.682Z,94453.69
2019-02-11T22:32:51.073Z,94457.05
2019-02-11T22:35:19.725Z,94455.23
2019-02-11T22:37:51.931Z,94458.29
2019-02-11T22:40:20.611Z,94476.01
2019-02-11T22:42:49.402Z,94472.95
2019-02-11T22:45:26.794Z,94485.47
2019-02-11T22:47:55.646Z,94483.77
2019-02-11T22:50:24.373Z,94515.19
2019-02-11T22:52:53.686Z,94511.80
2019-02-11T22:55:23.896Z,94513.87
2019-02-11T22:57:52.578Z,94528.92
2019-02-11T23:00:41.027Z,94527.50
2019-02-11T23:03:11.354Z,94521.91
2019-02-11T23:05:41.706Z,94514.31
2019-02-11T23:08:12.116Z,94536.19
2019-02-11T23:10:40.896Z,94532.77
2019-02-11T23:13:09.685Z,94547.48
2019-02-11T23:15:38.473Z,94555.66
2019-02-11T23:18:07.363Z,94567.42
2019-02-11T23:20:36.079Z,94569.65
2019-02-11T23:23:04.740Z,94563.11
2019-02-11T23:25:33.446Z,94570.97
2019-02-11T23:28:02.214Z,94564.46
2019-02-11T23:30:30.884Z,94589.89
2019-02-11T23:32:59.718Z,94584.77
2019-02-11T23:35:28.478Z,94590.77
2019-02-11T23:37:57.262Z,94587.66
2019-02-11T23:40:26.015Z,94593.54
2019-02-11T23:42:54.740Z,94605.89
2019-02-11T23:45:23.426Z,94605.15
2019-02-11T23:47:54.175Z,94598.10
2019-02-11T23:50:22.948Z,94611.20
2019-02-11T23:52:51.634Z,94600.38
2019-02-11T23:55:20.316Z,94613.75
2019-02-11T23:57:49.003Z,94609.25
